Time;durP1;ratioP1;P1;durP2;ratioP2;P2;SDS_P1;SDS_P2;PMS_P1;PMS_P2;Temp;Humidity;BMP_temperature;BMP_pressure;BME280_temperature;BME280_humidity;BME280_pressure;Samples;Min_cycle;Max_cycle;Signal;HPM_P1;HPM_P2
2022/11/24 00:00:00;;;;;;;24.50;14.63;;;6.90;99.90;;;;;;5039756;28;20412;-74
2022/11/24 00:02:28;;;;;;;24.02;14.35;;;6.90;99.90;;;;;;5037916;28;20415;-75
2022/11/24 00:04:53;;;;;;;22.65;14.65;;;6.90;99.90;;;;;;5029529;28;20411;-74
2022/11/24 00:07:19;;;;;;;25.30;14.50;;;7.00;99.90;;;;;;5027101;28;20842;-75
2022/11/24 00:09:44;;;;;;;25.20;14.70;;;7.00;99.90;;;;;;5019344;28;21247;-74
2022/11/24 00:12:10;;;;;;;25.33;14.73;;;7.00;99.90;;;;;;5037129;28;20435;-74
2022/11/24 00:14:36;;;;;;;24.20;13.43;;;7.00;99.90;;;;;;5036036;28;20776;-75
2022/11/24 00:17:01;;;;;;;24.02;13.43;;;7.00;99.90;;;;;;5022377;28;20419;-74
2022/11/24 00:19:27;;;;;;;21.23;13.20;;;7.00;99.90;;;;;;5032373;28;20498;-75
2022/11/24 00:21:53;;;;;;;26.17;13.85;;;7.00;99.90;;;;;;5037184;28;20488;-75
2022/11/24 00:24:18;;;;;;;26.57;13.30;;;7.00;99.90;;;;;;5049614;28;20444;-74
2022/11/24 00:26:44;;;;;;;27.27;13.23;;;7.00;99.90;;;;;;5032385;28;20401;-75
2022/11/24 00:29:10;;;;;;;25.03;12.43;;;7.00;99.90;;;;;;5014536;28;20432;-74
2022/11/24 00:31:40;;;;;;;23.52;12.35;;;6.90;99.90;;;;;;5028661;28;20435;-74
2022/11/24 00:34:10;;;;;;;29.83;13.37;;;6.90;99.90;;;;;;5018033;28;20395;-74
2022/11/24 00:36:37;;;;;;;23.52;12.68;;;6.90;99.90;;;;;;5031438;28;20406;-74
2022/11/24 00:39:06;;;;;;;24.33;12.88;;;6.80;99.90;;;;;;5044222;28;20459;-75
2022/11/24 00:41:32;;;;;;;26.63;13.05;;;6.80;99.90;;;;;;5037320;28;20415;-74
2022/11/24 00:43:58;;;;;;;24.48;12.45;;;6.80;99.90;;;;;;5050055;28;20412;-74
2022/11/24 00:46:24;;;;;;;24.77;12.95;;;6.70;99.90;;;;;;5037212;28;20746;-74
2022/11/24 00:48:50;;;;;;;23.15;12.05;;;6.70;99.90;;;;;;5024783;28;20634;-74
2022/11/24 00:51:17;;;;;;;28.50;13.02;;;6.70;99.90;;;;;;5032542;28;20434;-74
2022/11/24 00:53:43;;;;;;;23.98;12.82;;;6.60;99.90;;;;;;5031091;28;20421;-74
2022/11/24 00:56:10;;;;;;;26.30;12.40;;;6.60;99.90;;;;;;4997378;28;20758;-72
2022/11/24 00:58:36;;;;;;;26.38;12.90;;;6.60;99.90;;;;;;5037582;28;20406;-73
2022/11/24 01:01:10;;;;;;;29.75;13.32;;;6.60;99.90;;;;;;5047372;28;20393;-73
2022/11/24 01:03:36;;;;;;;24.98;12.45;;;6.60;99.90;;;;;;5031817;28;20429;-73
2022/11/24 01:06:19;;;;;;;24.58;12.82;;;6.60;99.90;;;;;;5037871;28;20412;-73
2022/11/24 01:08:45;;;;;;;31.42;13.05;;;6.60;99.90;;;;;;5018819;28;20411;-72
2022/11/24 01:11:24;;;;;;;27.90;12.80;;;6.60;99.90;;;;;;4995986;28;20774;-73
2022/11/24 01:13:56;;;;;;;26.42;13.00;;;6.60;99.90;;;;;;5029722;28;20408;-74
2022/11/24 01:16:33;;;;;;;31.65;13.75;;;6.60;99.90;;;;;;5030076;28;20402;-73
2022/11/24 01:18:59;;;;;;;31.17;13.23;;;6.60;99.90;;;;;;5015016;28;20458;-73
2022/11/24 01:21:25;;;;;;;26.98;12.00;;;6.60;99.90;;;;;;5013737;28;20422;-74
2022/11/24 01:23:51;;;;;;;29.53;12.43;;;6.60;99.90;;;;;;5013882;28;20419;-73
2022/11/24 01:26:18;;;;;;;26.65;12.20;;;6.60;99.90;;;;;;5012194;28;20411;-73
2022/11/24 01:28:45;;;;;;;24.98;11.82;;;6.60;99.90;;;;;;5024264;28;20498;-74
2022/11/24 01:31:10;;;;;;;30.42;11.95;;;6.60;99.90;;;;;;5010641;28;20996;-73
2022/11/24 01:33:36;;;;;;;31.23;12.55;;;6.60;99.90;;;;;;5030023;28;20408;-73
2022/11/24 01:36:03;;;;;;;29.00;11.55;;;6.60;99.90;;;;;;5039029;28;20398;-74
2022/11/24 01:38:29;;;;;;;26.80;11.63;;;6.60;99.90;;;;;;5032324;28;20490;-74
2022/11/24 01:41:13;;;;;;;30.43;11.13;;;6.60;99.90;;;;;;5030946;28;20490;-74
2022/11/24 01:43:40;;;;;;;28.90;11.38;;;6.60;99.90;;;;;;5018246;28;20409;-73
2022/11/24 01:46:31;;;;;;;28.88;10.90;;;6.60;99.90;;;;;;5033489;28;20406;-74
2022/11/24 01:49:08;;;;;;;25.77;10.30;;;6.60;99.90;;;;;;5035554;28;20422;-74
2022/11/24 01:51:39;;;;;;;29.20;10.73;;;6.60;99.90;;;;;;5047894;28;20464;-73
2022/11/24 01:54:10;;;;;;;26.38;10.20;;;6.50;99.90;;;;;;5035240;28;20488;-73
2022/11/24 01:56:39;;;;;;;24.08;9.80;;;6.60;99.90;;;;;;5048618;28;20444;-73
2022/11/24 01:59:09;;;;;;;25.52;9.50;;;6.60;99.90;;;;;;5031757;28;20418;-73
2022/11/24 02:01:34;;;;;;;25.93;8.83;;;6.50;99.90;;;;;;5035799;28;20418;-73
2022/11/24 02:04:03;;;;;;;28.93;9.20;;;6.50;99.90;;;;;;5027800;28;20399;-74
2022/11/24 02:06:32;;;;;;;31.27;9.57;;;6.60;99.90;;;;;;5028662;28;20399;-74
2022/11/24 02:09:12;;;;;;;25.67;8.70;;;6.50;99.90;;;;;;5035654;28;20432;-74
2022/11/24 02:11:40;;;;;;;28.88;8.90;;;6.50;99.90;;;;;;5025393;28;20917;-74
2022/11/24 02:14:09;;;;;;;25.63;8.73;;;6.50;99.90;;;;;;5039163;28;20409;-73
2022/11/24 02:16:36;;;;;;;27.02;8.45;;;6.50;99.90;;;;;;5033517;28;20414;-73
2022/11/24 02:19:07;;;;;;;28.50;8.82;;;6.50;99.90;;;;;;5036077;28;20919;-73
2022/11/24 02:21:33;;;;;;;30.13;8.23;;;6.50;99.90;;;;;;5030963;28;20838;-73
2022/11/24 02:24:08;;;;;;;26.20;8.43;;;6.50;99.90;;;;;;5030580;28;20492;-73
2022/11/24 02:26:44;;;;;;;23.52;8.07;;;6.60;99.90;;;;;;5021803;28;20463;-74
2022/11/24 02:29:12;;;;;;;24.90;8.13;;;6.60;99.90;;;;;;5019656;28;20470;-73
2022/11/24 02:31:43;;;;;;;26.85;7.93;;;6.60;99.90;;;;;;5011076;28;20474;-73
2022/11/24 02:34:09;;;;;;;29.15;7.70;;;6.70;99.90;;;;;;5037511;28;20406;-74
2022/11/24 02:36:34;;;;;;;26.07;7.73;;;6.70;99.90;;;;;;5007447;28;20761;-73
2022/11/24 02:39:00;;;;;;;24.25;6.93;;;6.70;99.90;;;;;;5025601;28;20496;-73
2022/11/24 02:41:27;;;;;;;25.30;7.30;;;6.80;99.90;;;;;;5044851;28;20412;-73
2022/11/24 02:44:00;;;;;;;29.13;8.07;;;6.80;99.90;;;;;;5011377;28;20411;-73
2022/11/24 02:46:26;;;;;;;25.55;7.28;;;6.80;99.90;;;;;;5036617;28;20826;-73
2022/11/24 02:48:52;;;;;;;25.20;6.33;;;6.80;99.90;;;;;;5033656;28;20490;-73
2022/11/24 02:51:18;;;;;;;24.10;6.97;;;6.80;99.90;;;;;;5037436;28;20457;-74
2022/11/24 02:53:43;;;;;;;27.83;6.53;;;6.90;99.90;;;;;;5043776;28;20411;-73
2022/11/24 02:56:09;;;;;;;28.88;7.25;;;6.90;99.90;;;;;;5019205;28;20408;-73
2022/11/24 02:58:35;;;;;;;25.70;6.77;;;6.90;99.90;;;;;;5037769;28;20415;-73
2022/11/24 03:01:00;;;;;;;22.63;6.83;;;6.90;99.90;;;;;;5028422;28;20406;-74
2022/11/24 03:03:26;;;;;;;25.02;6.43;;;6.90;99.90;;;;;;5030312;28;20395;-73
2022/11/24 03:05:52;;;;;;;23.67;6.13;;;6.90;99.90;;;;;;5025780;28;20478;-74
2022/11/24 03:08:18;;;;;;;26.45;6.80;;;6.90;99.90;;;;;;5042408;28;20412;-74
2022/11/24 03:10:44;;;;;;;25.35;6.20;;;6.90;99.90;;;;;;5036929;28;20929;-73
2022/11/24 03:13:09;;;;;;;29.20;6.80;;;6.80;99.90;;;;;;5032319;28;20462;-74
2022/11/24 03:15:36;;;;;;;29.13;6.77;;;6.80;99.90;;;;;;5040273;28;20517;-73
2022/11/24 03:18:02;;;;;;;28.17;6.43;;;6.80;99.90;;;;;;5023260;28;20416;-73
2022/11/24 03:20:28;;;;;;;24.80;6.70;;;6.70;99.90;;;;;;5036088;28;20401;-73
2022/11/24 03:22:53;;;;;;;23.83;6.60;;;6.70;99.90;;;;;;5030785;28;20414;-73
2022/11/24 03:25:19;;;;;;;33.35;6.93;;;6.70;99.90;;;;;;5031669;28;20497;-73
2022/11/24 03:27:45;;;;;;;25.65;6.10;;;6.60;99.90;;;;;;5028490;28;20905;-73
2022/11/24 03:30:11;;;;;;;32.85;6.32;;;6.60;99.90;;;;;;5001887;28;20481;-74
2022/11/24 03:32:37;;;;;;;25.23;6.78;;;6.60;99.90;;;;;;5028643;28;20543;-74
2022/11/24 03:35:03;;;;;;;25.30;6.05;;;6.60;99.90;;;;;;5031011;28;20478;-74
2022/11/24 03:37:29;;;;;;;21.83;6.45;;;6.60;99.90;;;;;;5032391;28;20445;-74
2022/11/24 03:39:55;;;;;;;23.05;6.40;;;6.60;99.90;;;;;;5028627;28;20430;-74
2022/11/24 03:42:21;;;;;;;26.60;6.30;;;6.60;99.90;;;;;;5004424;28;20405;-73
2022/11/24 03:44:47;;;;;;;31.27;6.30;;;6.70;99.90;;;;;;5018598;28;20407;-73
2022/11/24 03:47:13;;;;;;;25.80;5.82;;;6.70;99.90;;;;;;5043508;28;20405;-73
2022/11/24 03:49:40;;;;;;;27.98;6.13;;;6.70;99.90;;;;;;5029955;28;20409;-73
2022/11/24 03:52:06;;;;;;;24.17;5.60;;;6.80;99.90;;;;;;5028940;28;20460;-74
2022/11/24 03:54:32;;;;;;;25.05;5.57;;;6.70;99.90;;;;;;5051348;28;20406;-74
2022/11/24 03:56:57;;;;;;;24.85;6.30;;;6.80;99.90;;;;;;5032300;28;20424;-74
2022/11/24 03:59:23;;;;;;;28.10;5.80;;;6.80;99.90;;;;;;5041133;28;20412;-73
2022/11/24 04:01:49;;;;;;;24.08;5.45;;;6.80;99.90;;;;;;5048800;28;20408;-74
2022/11/24 04:04:14;;;;;;;31.40;6.43;;;6.80;99.90;;;;;;5022178;28;20406;-73
2022/11/24 04:06:40;;;;;;;24.23;5.67;;;6.80;99.90;;;;;;5021481;28;20407;-74
2022/11/24 04:09:06;;;;;;;27.08;6.30;;;6.90;99.90;;;;;;5032149;28;20470;-74
2022/11/24 04:14:17;;;;;;;26.38;5.57;;;6.80;99.90;;;;;;5025387;28;20496;-73
2022/11/24 04:16:43;;;;;;;30.58;5.60;;;6.90;99.90;;;;;;5016036;28;20416;-73
2022/11/24 04:19:08;;;;;;;25.42;6.03;;;6.80;99.90;;;;;;5021066;28;20419;-74
2022/11/24 04:21:34;;;;;;;25.85;5.88;;;6.90;99.90;;;;;;5042003;28;20434;-74
2022/11/24 04:23:59;;;;;;;28.67;6.17;;;6.90;99.90;;;;;;5030859;28;20928;-73
2022/11/24 04:26:25;;;;;;;22.98;5.60;;;6.90;99.90;;;;;;5031605;28;20817;-73
2022/11/24 04:28:51;;;;;;;28.63;6.10;;;6.90;99.90;;;;;;5013445;28;20425;-73
2022/11/24 04:31:17;;;;;;;24.77;5.45;;;6.90;99.90;;;;;;5049204;28;20443;-74
2022/11/24 04:33:42;;;;;;;29.48;5.60;;;6.90;99.90;;;;;;5044387;28;20474;-74
2022/11/24 04:36:08;;;;;;;24.97;5.10;;;6.90;99.90;;;;;;5029396;28;20409;-73
2022/11/24 04:38:34;;;;;;;26.63;5.47;;;6.90;99.90;;;;;;5025808;28;20502;-73
2022/11/24 04:41:03;;;;;;;27.27;5.90;;;6.90;99.90;;;;;;5031031;28;20407;-74
2022/11/24 04:43:29;;;;;;;24.88;5.38;;;6.80;99.90;;;;;;5022325;28;20793;-74
2022/11/24 04:45:55;;;;;;;23.20;5.05;;;6.80;99.90;;;;;;5029720;28;20796;-73
2022/11/24 04:48:21;;;;;;;21.83;4.68;;;6.80;99.90;;;;;;4996726;28;20466;-73
2022/11/24 04:50:47;;;;;;;24.23;4.93;;;6.90;99.90;;;;;;5037391;28;20422;-73
2022/11/24 04:53:13;;;;;;;25.80;5.43;;;6.80;99.90;;;;;;5028774;28;20913;-73
2022/11/24 04:55:39;;;;;;;25.67;5.10;;;6.90;99.90;;;;;;5026385;28;20407;-74
2022/11/24 04:58:09;;;;;;;22.65;5.28;;;6.90;99.90;;;;;;5034448;28;20407;-74
2022/11/24 05:00:34;;;;;;;21.10;4.72;;;6.90;99.90;;;;;;5034910;28;20451;-74
2022/11/24 05:03:00;;;;;;;24.98;4.80;;;6.80;99.90;;;;;;5047602;28;20405;-73
2022/11/24 05:05:25;;;;;;;24.87;4.87;;;6.80;99.90;;;;;;5030985;28;20413;-73
2022/11/24 05:07:51;;;;;;;24.77;4.93;;;6.70;99.90;;;;;;5032082;28;20509;-73
2022/11/24 05:10:35;;;;;;;21.83;4.83;;;6.70;99.90;;;;;;5034849;28;20832;-74
2022/11/24 05:13:06;;;;;;;26.25;4.78;;;6.60;99.90;;;;;;5029772;28;20446;-74
2022/11/24 05:15:32;;;;;;;25.67;5.03;;;6.60;99.90;;;;;;5034442;28;20428;-73
2022/11/24 05:17:58;;;;;;;26.35;4.68;;;6.60;99.90;;;;;;5010955;28;20796;-73
2022/11/24 05:20:24;;;;;;;25.42;4.68;;;6.50;99.90;;;;;;5023656;28;20398;-73
2022/11/24 05:22:49;;;;;;;27.60;4.53;;;6.50;99.90;;;;;;5020687;28;20469;-73
2022/11/24 05:25:15;;;;;;;23.53;4.13;;;6.40;99.90;;;;;;5028110;28;20403;-73
2022/11/24 05:27:41;;;;;;;24.13;4.00;;;6.40;99.90;;;;;;5034871;28;20403;-73
2022/11/24 05:30:08;;;;;;;24.17;4.17;;;6.40;99.90;;;;;;5029587;28;20407;-74
2022/11/24 05:32:33;;;;;;;18.90;4.15;;;6.30;99.90;;;;;;5012831;28;20471;-73
2022/11/24 05:35:01;;;;;;;21.70;3.90;;;6.30;99.90;;;;;;5029759;28;20867;-74
2022/11/24 05:37:29;;;;;;;25.27;4.68;;;6.30;99.90;;;;;;5029044;28;20411;-73
2022/11/24 05:39:55;;;;;;;21.48;3.88;;;6.20;99.90;;;;;;5019594;28;20915;-73
2022/11/24 05:42:39;;;;;;;22.93;4.23;;;6.20;99.90;;;;;;5039413;28;20397;-73
2022/11/24 05:45:06;;;;;;;23.25;4.75;;;6.20;99.90;;;;;;5011742;28;20932;-74
2022/11/24 05:47:31;;;;;;;24.05;5.00;;;6.10;99.90;;;;;;5022951;28;20419;-73
2022/11/24 05:49:57;;;;;;;21.77;4.30;;;6.10;99.90;;;;;;5010884;28;20419;-73
2022/11/24 05:52:23;;;;;;;24.23;4.83;;;6.10;99.90;;;;;;5042308;28;20430;-73
2022/11/24 05:54:48;;;;;;;22.85;4.60;;;6.00;99.90;;;;;;5039217;28;21006;-73
2022/11/24 05:57:15;;;;;;;23.30;4.50;;;6.00;99.90;;;;;;5032444;28;20769;-73
2022/11/24 05:59:41;;;;;;;19.98;3.90;;;6.00;99.90;;;;;;5035806;28;20429;-73
2022/11/24 06:02:07;;;;;;;23.23;4.37;;;6.00;99.90;;;;;;5023638;28;20971;-73
2022/11/24 06:04:32;;;;;;;26.50;4.38;;;5.90;99.90;;;;;;5039206;28;20744;-73
2022/11/24 06:06:58;;;;;;;20.67;4.00;;;5.90;99.90;;;;;;5031277;28;20430;-73
2022/11/24 06:09:23;;;;;;;26.00;4.38;;;5.90;99.90;;;;;;5029259;28;20405;-74
2022/11/24 06:11:49;;;;;;;24.37;4.70;;;5.90;99.90;;;;;;5007409;28;20783;-74
2022/11/24 06:14:15;;;;;;;22.20;4.05;;;5.90;99.90;;;;;;5040925;28;20443;-73
2022/11/24 06:16:40;;;;;;;21.03;4.60;;;5.90;99.90;;;;;;5048005;28;20406;-73
2022/11/24 06:19:07;;;;;;;22.35;4.13;;;5.90;99.90;;;;;;5014046;28;20409;-74
2022/11/24 06:21:33;;;;;;;25.58;4.38;;;5.80;99.90;;;;;;5032566;28;20411;-73
2022/11/24 06:23:58;;;;;;;25.67;4.57;;;5.80;99.90;;;;;;5020100;28;20425;-73
2022/11/24 06:26:24;;;;;;;22.20;4.18;;;5.80;99.90;;;;;;5018087;28;20846;-73
2022/11/24 06:28:49;;;;;;;18.70;3.83;;;5.70;99.90;;;;;;5038164;28;20420;-73
2022/11/24 06:31:15;;;;;;;21.92;4.07;;;5.70;99.90;;;;;;5044259;28;20784;-73
2022/11/24 06:33:41;;;;;;;24.77;4.60;;;5.70;99.90;;;;;;5026820;28;20457;-74
2022/11/24 06:36:09;;;;;;;21.63;3.53;;;5.70;99.90;;;;;;5044148;28;20417;-74
2022/11/24 06:38:35;;;;;;;24.08;3.80;;;5.60;99.90;;;;;;5046907;28;20405;-74
2022/11/24 06:41:14;;;;;;;18.15;3.80;;;5.70;99.90;;;;;;5044858;28;20434;-73
2022/11/24 06:43:40;;;;;;;28.77;4.10;;;5.60;99.90;;;;;;5022683;28;20883;-74
2022/11/24 06:46:06;;;;;;;22.67;3.90;;;5.60;99.90;;;;;;5035374;28;20444;-74
2022/11/24 06:48:32;;;;;;;22.40;3.92;;;5.60;99.90;;;;;;5037156;28;20525;-74
2022/11/24 06:50:59;;;;;;;21.85;4.32;;;5.60;99.90;;;;;;5023743;28;20506;-73
2022/11/24 06:53:25;;;;;;;25.52;4.22;;;5.60;99.90;;;;;;5010414;28;20412;-74
2022/11/24 06:55:51;;;;;;;19.02;3.80;;;5.50;99.90;;;;;;5033483;28;20409;-74
2022/11/24 06:58:17;;;;;;;21.33;3.75;;;5.50;99.90;;;;;;5040486;28;20417;-73
2022/11/24 07:00:43;;;;;;;20.55;3.70;;;5.50;99.90;;;;;;5025819;28;20407;-74
2022/11/24 07:03:15;;;;;;;21.00;3.97;;;5.50;99.90;;;;;;5028653;28;20398;-74
2022/11/24 07:05:42;;;;;;;19.50;3.67;;;5.50;99.90;;;;;;5040760;28;20427;-74
2022/11/24 07:08:08;;;;;;;23.27;3.70;;;5.50;99.90;;;;;;5023766;28;20500;-74
2022/11/24 07:10:34;;;;;;;23.27;4.47;;;5.40;99.90;;;;;;5040639;28;20490;-74
2022/11/24 07:13:02;;;;;;;23.80;4.07;;;5.50;99.90;;;;;;5012499;28;20407;-74
2022/11/24 07:15:28;;;;;;;20.33;3.50;;;5.50;99.90;;;;;;5010656;28;20411;-73
2022/11/24 07:17:54;;;;;;;18.88;3.28;;;5.50;99.90;;;;;;5032658;28;20850;-73
2022/11/24 07:20:20;;;;;;;22.37;4.20;;;5.50;99.90;;;;;;5010618;28;20495;-73
2022/11/24 07:22:45;;;;;;;21.65;3.95;;;5.50;99.90;;;;;;5041419;28;20409;-74
2022/11/24 07:25:12;;;;;;;22.83;3.93;;;5.60;99.90;;;;;;5013086;28;20494;-73
2022/11/24 07:27:38;;;;;;;19.77;3.70;;;5.60;99.90;;;;;;5008682;28;20409;-74
2022/11/24 07:30:04;;;;;;;23.15;4.18;;;5.60;99.90;;;;;;5042436;28;20486;-73
2022/11/24 07:32:30;;;;;;;20.63;3.83;;;5.60;99.90;;;;;;5015118;28;20635;-74
2022/11/24 07:34:56;;;;;;;21.15;3.55;;;5.60;99.90;;;;;;5030078;28;20490;-74
2022/11/24 07:37:21;;;;;;;18.73;3.53;;;5.60;99.90;;;;;;5032378;28;20415;-74
2022/11/24 07:39:47;;;;;;;25.48;4.82;;;5.60;99.90;;;;;;5030629;28;20403;-73
2022/11/24 07:42:12;;;;;;;22.23;3.60;;;5.60;99.90;;;;;;5022066;28;20822;-73
2022/11/24 07:44:39;;;;;;;17.80;4.00;;;5.60;99.90;;;;;;5033815;28;20437;-73
2022/11/24 07:47:05;;;;;;;24.30;3.90;;;5.60;99.90;;;;;;5020098;28;20461;-74
2022/11/24 07:49:30;;;;;;;22.03;4.17;;;5.60;99.90;;;;;;5032991;28;20407;-74
2022/11/24 07:51:56;;;;;;;17.42;3.95;;;5.70;99.90;;;;;;5026964;28;20433;-73
2022/11/24 07:54:22;;;;;;;25.70;3.87;;;5.70;99.90;;;;;;4998338;28;20899;-73
2022/11/24 07:56:48;;;;;;;25.45;4.65;;;5.70;99.90;;;;;;5032345;28;20840;-73
2022/11/24 07:59:14;;;;;;;20.73;4.57;;;5.70;99.90;;;;;;5037185;28;20413;-74
2022/11/24 08:01:39;;;;;;;21.50;3.50;;;5.70;99.90;;;;;;5021677;28;20761;-74
2022/11/24 08:04:05;;;;;;;24.73;4.23;;;5.70;99.90;;;;;;5050640;28;20409;-74
2022/11/24 08:06:31;;;;;;;21.08;4.18;;;5.70;99.90;;;;;;5049965;28;20435;-73
2022/11/24 08:08:57;;;;;;;19.70;4.10;;;5.80;99.90;;;;;;4991316;28;20416;-73
2022/11/24 08:11:23;;;;;;;19.75;4.40;;;5.80;99.90;;;;;;5011805;28;20445;-73
2022/11/24 08:13:49;;;;;;;23.13;4.25;;;5.80;99.90;;;;;;5012994;28;20404;-73
2022/11/24 08:16:17;;;;;;;16.63;3.95;;;5.80;99.90;;;;;;5006411;28;20971;-73
2022/11/24 08:18:43;;;;;;;21.05;4.57;;;5.90;99.90;;;;;;5013208;28;20409;-74
2022/11/24 08:21:13;;;;;;;20.15;3.95;;;5.90;99.90;;;;;;4994293;28;20994;-73
2022/11/24 08:23:39;;;;;;;20.05;4.20;;;6.00;99.90;;;;;;4990457;28;20413;-73
2022/11/24 08:26:07;;;;;;;21.98;4.50;;;6.00;99.90;;;;;;5015959;28;20432;-73
2022/11/24 08:28:33;;;;;;;24.02;3.80;;;6.10;99.90;;;;;;5011720;28;20416;-73
2022/11/24 08:31:09;;;;;;;21.95;4.18;;;6.10;99.90;;;;;;5010511;28;20929;-73
2022/11/24 08:33:35;;;;;;;22.63;4.28;;;6.10;99.90;;;;;;5019824;28;20408;-74
2022/11/24 08:36:11;;;;;;;22.65;4.60;;;6.20;99.90;;;;;;5030383;28;20407;-74
2022/11/24 08:38:37;;;;;;;21.60;4.80;;;6.30;99.90;;;;;;5012488;28;20450;-73
2022/11/24 08:41:05;;;;;;;22.10;4.38;;;6.30;99.90;;;;;;5029475;28;20402;-74
2022/11/24 08:43:31;;;;;;;22.90;4.50;;;6.40;99.90;;;;;;5001790;28;20500;-73
2022/11/24 08:46:01;;;;;;;18.50;4.55;;;6.40;99.90;;;;;;5025509;28;20487;-74
2022/11/24 08:48:28;;;;;;;23.13;5.32;;;6.50;99.90;;;;;;5012721;28;20780;-74
2022/11/24 08:50:54;;;;;;;24.60;4.90;;;6.60;99.90;;;;;;5003662;28;20405;-74
2022/11/24 08:53:19;;;;;;;19.90;5.10;;;6.70;99.90;;;;;;5011995;28;20494;-74
2022/11/24 08:55:45;;;;;;;24.25;5.38;;;6.70;99.90;;;;;;5029505;28;20489;-74
2022/11/24 08:58:11;;;;;;;19.60;4.63;;;6.80;99.90;;;;;;5005653;28;20420;-74
2022/11/24 09:00:36;;;;;;;21.07;4.97;;;6.90;99.90;;;;;;5015481;28;20875;-73
2022/11/24 09:03:02;;;;;;;19.87;5.50;;;7.00;99.90;;;;;;5027918;28;20486;-74
2022/11/24 09:05:28;;;;;;;20.60;5.60;;;7.00;99.90;;;;;;5015312;28;20395;-74
2022/11/24 09:07:53;;;;;;;22.10;5.65;;;7.10;99.90;;;;;;5013212;28;20492;-73
2022/11/24 09:10:19;;;;;;;19.67;5.00;;;7.20;99.90;;;;;;5032965;28;20494;-74
2022/11/24 09:12:46;;;;;;;18.98;5.40;;;7.20;99.90;;;;;;5029932;28;20434;-73
2022/11/24 09:15:13;;;;;;;18.05;5.60;;;7.30;99.90;;;;;;5031694;28;20939;-74
2022/11/24 09:17:39;;;;;;;23.67;5.90;;;7.30;99.90;;;;;;5029724;28;20403;-74
2022/11/24 09:20:05;;;;;;;18.95;5.22;;;7.30;99.90;;;;;;5012207;28;20417;-74
2022/11/24 09:22:31;;;;;;;19.80;6.15;;;7.40;99.90;;;;;;4995819;28;20438;-74
2022/11/24 09:24:57;;;;;;;18.87;5.40;;;7.40;99.90;;;;;;5013186;28;20921;-74
2022/11/24 09:27:22;;;;;;;23.73;5.97;;;7.50;99.90;;;;;;5004648;28;20819;-73
2022/11/24 09:29:48;;;;;;;20.95;6.18;;;7.50;99.90;;;;;;5031858;28;20996;-73
2022/11/24 09:32:14;;;;;;;18.00;5.17;;;7.60;99.90;;;;;;5040808;28;20433;-74
2022/11/24 09:34:39;;;;;;;19.27;5.63;;;7.60;99.90;;;;;;5049047;28;20452;-74
2022/11/24 09:37:05;;;;;;;15.68;5.35;;;7.70;99.90;;;;;;5014402;28;20908;-73
2022/11/24 09:39:31;;;;;;;20.33;5.50;;;7.70;99.90;;;;;;5046256;28;20402;-73
2022/11/24 09:42:16;;;;;;;18.30;5.57;;;7.70;99.90;;;;;;5007980;28;20411;-73
2022/11/24 09:45:03;;;;;;;19.92;5.70;;;7.70;99.90;;;;;;5006303;28;20417;-74
2022/11/24 09:47:54;;;;;;;20.25;5.97;;;7.70;99.90;;;;;;5028405;28;20422;-73
2022/11/24 09:50:23;;;;;;;14.02;5.03;;;7.80;99.90;;;;;;5045812;28;20497;-74
2022/11/24 09:53:02;;;;;;;17.88;6.18;;;7.80;99.90;;;;;;5014460;28;20437;-74
2022/11/24 09:55:48;;;;;;;18.55;6.03;;;7.80;99.90;;;;;;5027358;28;20467;-73
2022/11/24 09:58:30;;;;;;;21.05;6.18;;;7.90;99.90;;;;;;5038007;28;20828;-73
2022/11/24 10:00:56;;;;;;;15.05;5.20;;;8.00;99.90;;;;;;5007427;28;20444;-73
2022/11/24 10:03:31;;;;;;;15.52;5.38;;;8.10;99.90;;;;;;5046678;28;20402;-73
2022/11/24 10:05:59;;;;;;;18.50;5.23;;;8.20;99.90;;;;;;5028793;28;20945;-73
2022/11/24 10:09:04;;;;;;;19.57;5.73;;;8.20;99.90;;;;;;5035101;28;20510;-73
2022/11/24 10:11:56;;;;;;;17.88;4.50;;;8.20;99.90;;;;;;4958268;28;20475;-74
2022/11/24 10:14:47;;;;;;;12.88;4.65;;;8.20;99.90;;;;;;5013629;28;20897;-73
2022/11/24 10:17:47;;;;;;;15.27;4.33;;;8.30;99.90;;;;;;5016057;28;20837;-73
2022/11/24 10:20:38;;;;;;;11.93;3.83;;;8.30;99.90;;;;;;5033915;28;20421;-73
2022/11/24 10:23:26;;;;;;;12.85;4.00;;;8.40;99.90;;;;;;5044410;28;20843;-74
2022/11/24 10:25:56;;;;;;;11.13;3.75;;;8.50;99.90;;;;;;5040299;28;20403;-74
2022/11/24 10:28:31;;;;;;;13.77;3.47;;;9.00;99.90;;;;;;5046993;28;20405;-74
2022/11/24 10:31:28;;;;;;;7.85;2.72;;;10.00;99.90;;;;;;5001228;28;20909;-74
2022/11/24 10:33:58;;;;;;;11.47;3.23;;;10.80;99.90;;;;;;5023016;28;20421;-74
2022/11/24 10:36:54;;;;;;;9.43;2.55;;;11.00;99.90;;;;;;5028637;28;20418;-74
2022/11/24 10:39:28;;;;;;;9.02;2.47;;;11.00;99.90;;;;;;5030695;28;20407;-73
2022/11/24 10:42:14;;;;;;;10.47;2.90;;;10.90;99.90;;;;;;5022809;28;20411;-74
2022/11/24 10:44:41;;;;;;;8.73;2.42;;;10.80;99.90;;;;;;5047985;28;20445;-74
2022/11/24 10:47:19;;;;;;;8.73;2.35;;;10.60;99.90;;;;;;5033427;28;20407;-74
2022/11/24 10:49:54;;;;;;;9.05;2.47;;;10.40;99.90;;;;;;5011936;28;20415;-73
2022/11/24 10:52:22;;;;;;;7.95;2.20;;;10.40;99.90;;;;;;5028728;28;20431;-75
2022/11/24 10:54:59;;;;;;;9.85;2.47;;;10.40;99.90;;;;;;5027195;28;20426;-74
2022/11/24 10:57:37;;;;;;;9.40;2.28;;;10.50;99.90;;;;;;5010827;28;21131;-74
2022/11/24 11:00:18;;;;;;;8.15;2.00;;;10.70;99.90;;;;;;5047960;28;20520;-74
2022/11/24 11:02:44;;;;;;;6.78;1.55;;;11.20;99.90;;;;;;5027465;28;20416;-74
2022/11/24 11:05:31;;;;;;;7.75;1.90;;;11.90;99.90;;;;;;5033098;28;20911;-74
2022/11/24 11:08:19;;;;;;;6.07;1.50;;;12.70;99.90;;;;;;5016586;28;20443;-74
2022/11/24 11:10:47;;;;;;;6.32;1.50;;;13.10;99.90;;;;;;5051486;28;20938;-74
2022/11/24 11:13:22;;;;;;;7.10;1.73;;;13.50;99.90;;;;;;5038070;28;20516;-74
2022/11/24 11:15:48;;;;;;;5.60;1.45;;;13.80;99.90;;;;;;5020996;28;20893;-74
2022/11/24 11:18:16;;;;;;;6.45;1.23;;;14.20;99.90;;;;;;5023283;28;20496;-75
2022/11/24 11:20:54;;;;;;;7.15;1.83;;;14.60;99.90;;;;;;5032518;28;20801;-75
2022/11/24 11:23:29;;;;;;;6.35;1.20;;;14.70;99.90;;;;;;5031870;28;20824;-74
2022/11/24 11:26:16;;;;;;;5.57;1.52;;;14.30;99.90;;;;;;5042961;28;20405;-75
2022/11/24 11:29:09;;;;;;;7.32;1.50;;;13.70;99.90;;;;;;4998304;28;20449;-74
2022/11/24 11:31:35;;;;;;;8.63;1.40;;;13.00;99.90;;;;;;5030999;28;20433;-74
2022/11/24 11:34:16;;;;;;;7.22;1.50;;;12.40;99.90;;;;;;5047127;28;20733;-74
2022/11/24 11:36:48;;;;;;;6.57;1.35;;;12.00;99.90;;;;;;5019981;28;20410;-75
2022/11/24 11:39:30;;;;;;;7.30;1.55;;;11.80;99.90;;;;;;4999025;28;20505;-74
2022/11/24 11:42:21;;;;;;;7.05;1.25;;;11.60;99.90;;;;;;5026299;28;20778;-75
2022/11/24 11:44:56;;;;;;;5.90;1.70;;;11.40;99.90;;;;;;4985536;28;20415;-74
2022/11/24 11:47:28;;;;;;;5.80;1.30;;;11.30;99.90;;;;;;5011794;28;20972;-75
2022/11/24 11:49:54;;;;;;;6.20;1.55;;;11.20;99.90;;;;;;5048020;28;20416;-74
2022/11/24 11:52:32;;;;;;;7.38;1.40;;;11.10;99.90;;;;;;5025868;28;20440;-75
2022/11/24 11:55:16;;;;;;;6.30;1.23;;;11.00;99.90;;;;;;5023560;28;20911;-75
2022/11/24 11:57:51;;;;;;;7.13;1.50;;;11.00;99.90;;;;;;5017663;28;20498;-75
2022/11/24 12:00:21;;;;;;;7.95;1.48;;;10.90;99.90;;;;;;5018488;28;20423;-75
2022/11/24 12:03:43;;;;;;;7.00;1.20;;;11.00;99.90;;;;;;5031680;28;20447;-75
2022/11/24 12:06:45;;;;;;;7.25;1.40;;;11.00;99.90;;;;;;4950662;28;20429;-75
2022/11/24 12:09:44;;;;;;;5.82;1.15;;;11.10;99.90;;;;;;4934813;29;20425;-74
2022/11/24 12:12:36;;;;;;;8.13;1.40;;;11.20;99.90;;;;;;5024379;28;20969;-75
2022/11/24 12:15:29;;;;;;;7.35;1.33;;;11.20;99.90;;;;;;4980962;28;20468;-74
2022/11/24 12:18:14;;;;;;;6.70;1.20;;;11.20;99.90;;;;;;5013453;28;20421;-74
2022/11/24 12:21:17;;;;;;;6.82;1.33;;;11.10;99.90;;;;;;5020018;28;20809;-74
2022/11/24 12:24:01;;;;;;;7.82;1.38;;;11.20;99.90;;;;;;4951723;28;20426;-74
2022/11/24 12:26:47;;;;;;;5.90;1.45;;;11.20;99.90;;;;;;5023784;28;20484;-75
2022/11/24 12:29:37;;;;;;;6.75;1.90;;;11.20;99.90;;;;;;5012205;28;20472;-75
2022/11/24 12:32:32;;;;;;;7.10;1.50;;;11.20;99.90;;;;;;4966941;28;20885;-74
2022/11/24 12:35:04;;;;;;;7.53;1.52;;;11.00;99.90;;;;;;5017630;28;20442;-74
2022/11/24 12:37:50;;;;;;;7.20;1.47;;;11.10;99.90;;;;;;4983958;28;20421;-74
2022/11/24 12:40:34;;;;;;;7.47;1.50;;;11.00;99.90;;;;;;5002825;28;20417;-74
2022/11/24 12:43:26;;;;;;;7.32;1.52;;;10.90;99.90;;;;;;5017386;28;20418;-74
2022/11/24 12:45:51;;;;;;;7.60;1.63;;;10.90;99.90;;;;;;5023788;28;20456;-74
2022/11/24 12:48:37;;;;;;;8.73;2.37;;;10.90;99.90;;;;;;5003281;28;20411;-74
2022/11/24 12:51:05;;;;;;;8.02;1.60;;;10.90;99.90;;;;;;5011316;28;20411;-74
2022/11/24 12:53:35;;;;;;;8.80;2.08;;;10.90;99.90;;;;;;5016780;28;20404;-74
2022/11/24 12:56:08;;;;;;;6.47;1.63;;;10.90;99.90;;;;;;5030036;28;20395;-74
2022/11/24 12:58:44;;;;;;;9.95;2.08;;;10.90;99.90;;;;;;4997663;28;20421;-75
2022/11/24 13:01:35;;;;;;;8.18;2.28;;;10.90;99.90;;;;;;5010333;28;20413;-74
2022/11/24 13:04:16;;;;;;;9.57;2.00;;;10.90;99.90;;;;;;4994215;28;20417;-74